createdAt,value
2017-04-25T00:00:12.027Z,99.99
2017-04-25T00:01:11.702Z,99.99
2017-04-25T00:02:11.993Z,99.99
2017-04-25T00:03:11.652Z,99.99
2017-04-25T00:04:11.945Z,99.99
2017-04-25T00:05:11.622Z,99.99
2017-04-25T00:06:11.604Z,99.99
2017-04-25T00:07:11.572Z,99.99
2017-04-25T00:08:11.555Z,99.99
2017-04-25T00:09:11.854Z,99.99
2017-04-25T00:10:11.832Z,99.99
2017-04-25T00:11:11.822Z,99.99
2017-04-25T00:12:11.794Z,99.99
2017-04-25T00:13:11.780Z,99.99
2017-04-25T00:14:11.747Z,99.99
2017-04-25T00:15:11.718Z,99.99
2017-04-25T00:16:11.693Z,99.99
2017-04-25T00:17:11.684Z,99.99
2017-04-25T00:18:11.662Z,99.99
2017-04-25T00:19:11.633Z,99.99
2017-04-25T00:20:11.617Z,99.99
2017-04-25T00:21:11.604Z,99.99
2017-04-25T00:22:11.573Z,99.99
2017-04-25T00:23:11.563Z,99.99
2017-04-25T00:24:11.236Z,99.99
2017-04-25T00:25:11.512Z,99.99
2017-04-25T00:26:11.192Z,99.99
2017-04-25T00:27:11.475Z,99.99
2017-04-25T00:28:11.462Z,99.99
2017-04-25T00:29:11.435Z,99.99
2017-04-25T00:30:11.424Z,99.99
2017-04-25T00:31:11.086Z,99.99
2017-04-25T00:32:11.371Z,99.99
2017-04-25T00:33:11.344Z,99.99
2017-04-25T00:34:11.024Z,99.99
2017-04-25T00:35:11.313Z,99.99
2017-04-25T00:36:10.986Z,99.99
2017-04-25T00:37:10.955Z,99.99
2017-04-25T00:38:10.954Z,99.99
2017-04-25T00:39:11.219Z,99.99
2017-04-25T00:40:11.204Z,99.99
2017-04-25T00:41:11.213Z,99.99
2017-04-25T00:42:11.155Z,99.99
2017-04-25T00:43:10.837Z,99.99
2017-04-25T00:44:10.807Z,99.99
2017-04-25T00:45:11.093Z,99.99
2017-04-25T00:46:11.075Z,99.99
2017-04-25T00:47:11.043Z,99.99
2017-04-25T00:48:11.027Z,99.99
2017-04-25T00:49:11.004Z,99.99
2017-04-25T00:50:10.983Z,99.99
2017-04-25T00:51:10.963Z,99.99
2017-04-25T00:52:10.934Z,99.99
2017-04-25T00:53:10.923Z,99.99
2017-04-25T00:54:10.901Z,99.99
2017-04-25T00:55:10.883Z,99.99
2017-04-25T00:56:10.850Z,99.99
2017-04-25T00:57:10.613Z,99.99
2017-04-25T00:58:10.510Z,99.99
2017-04-25T00:59:10.490Z,99.99
2017-04-25T01:00:10.779Z,99.99
2017-04-25T01:01:10.755Z,99.99
2017-04-25T01:02:10.734Z,99.99
2017-04-25T01:03:10.704Z,99.99
2017-04-25T01:04:10.695Z,99.99
2017-04-25T01:05:10.665Z,99.99
2017-04-25T01:06:10.653Z,99.99
2017-04-25T01:07:10.624Z,99.99
2017-04-25T01:08:10.293Z,99.99
2017-04-25T01:09:10.585Z,99.99
2017-04-25T01:10:10.256Z,99.99
2017-04-25T01:11:10.239Z,99.99
2017-04-25T01:12:10.215Z,99.99
2017-04-25T01:13:10.497Z,99.99
2017-04-25T01:14:10.825Z,99.99
2017-04-25T01:15:10.472Z,99.99
2017-04-25T01:16:10.435Z,99.99
2017-04-25T01:17:10.416Z,99.99
2017-04-25T01:18:10.394Z,99.99
2017-04-25T01:19:10.376Z,99.99
2017-04-25T01:20:10.351Z,99.99
2017-04-25T01:21:10.328Z,99.99
2017-04-25T01:22:10.305Z,99.99
2017-04-25T01:23:09.985Z,99.99
2017-04-25T01:24:09.983Z,99.99
2017-04-25T01:25:10.245Z,99.99
2017-04-25T01:26:09.912Z,99.99
2017-04-25T01:27:10.192Z,99.99
2017-04-25T01:28:09.882Z,99.99
2017-04-25T01:29:10.153Z,99.99
2017-04-25T01:30:10.141Z,99.99
2017-04-25T01:31:09.809Z,99.99
2017-04-25T01:32:10.094Z,99.99
2017-04-25T01:33:10.083Z,99.99
2017-04-25T01:34:10.057Z,99.99
2017-04-25T01:35:10.033Z,99.99
2017-04-25T01:36:10.016Z,99.99
2017-04-25T01:37:09.990Z,99.99
2017-04-25T01:38:09.975Z,99.99
2017-04-25T01:39:09.948Z,99.99
2017-04-25T01:40:09.614Z,99.99
2017-04-25T01:41:09.604Z,99.99
2017-04-25T01:42:09.886Z,99.99
2017-04-25T01:43:09.865Z,99.99
2017-04-25T01:44:09.845Z,99.99
2017-04-25T01:45:09.834Z,99.99
2017-04-25T01:46:09.791Z,99.99
2017-04-25T01:47:09.775Z,99.99
2017-04-25T01:48:09.768Z,99.99
2017-04-25T01:49:09.743Z,99.99
2017-04-25T01:50:09.714Z,99.99
2017-04-25T01:51:09.693Z,99.99
2017-04-25T01:52:09.681Z,99.99
2017-04-25T01:53:09.649Z,99.99
2017-04-25T01:54:09.623Z,99.99
2017-04-25T01:55:09.614Z,99.99
2017-04-25T01:56:09.291Z,99.99
2017-04-25T01:57:09.563Z,99.99
2017-04-25T01:58:09.551Z,99.99
2017-04-25T01:59:09.522Z,99.99
2017-04-25T02:00:09.495Z,99.99
2017-04-25T02:01:09.485Z,99.99
2017-04-25T02:02:09.462Z,99.99
2017-04-25T02:03:09.441Z,99.99
2017-04-25T02:04:09.410Z,99.99
2017-04-25T02:05:09.394Z,99.99
2017-04-25T02:06:09.080Z,99.99
2017-04-25T02:07:09.364Z,99.99
2017-04-25T02:08:09.324Z,99.99
2017-04-25T02:09:09.011Z,99.99
2017-04-25T02:10:09.293Z,99.99
2017-04-25T02:11:09.266Z,99.99
2017-04-25T02:12:09.244Z,99.99
2017-04-25T02:13:09.213Z,99.99
2017-04-25T02:14:08.899Z,99.99
2017-04-25T02:15:09.173Z,99.99
2017-04-25T02:16:09.162Z,99.99
2017-04-25T02:17:09.132Z,99.99
2017-04-25T02:18:08.807Z,99.99
2017-04-25T02:19:09.092Z,99.99
2017-04-25T02:20:09.068Z,99.99
2017-04-25T02:21:09.062Z,99.99
2017-04-25T02:22:09.036Z,99.99
2017-04-25T02:23:08.704Z,99.99
2017-04-25T02:24:08.692Z,99.99
2017-04-25T02:25:08.978Z,99.99
2017-04-25T02:26:08.951Z,99.99
2017-04-25T02:27:08.922Z,99.99
2017-04-25T02:28:08.604Z,99.99
2017-04-25T02:29:08.576Z,99.99
2017-04-25T02:30:08.860Z,99.99
2017-04-25T02:31:08.533Z,99.99
2017-04-25T02:32:08.821Z,99.99
2017-04-25T02:33:08.865Z,99.99
2017-04-25T02:34:08.777Z,99.99
2017-04-25T02:35:08.773Z,99.99
2017-04-25T02:36:08.432Z,99.99
2017-04-25T02:37:08.721Z,99.99
2017-04-25T02:38:08.382Z,99.99
2017-04-25T02:39:08.772Z,99.99
2017-04-25T02:40:08.652Z,99.99
2017-04-25T02:41:08.314Z,99.99
2017-04-25T02:42:08.612Z,99.99
2017-04-25T02:43:08.584Z,99.99
2017-04-25T02:44:08.555Z,99.99
2017-04-25T02:45:08.587Z,99.99
2017-04-25T02:46:08.517Z,99.99
2017-04-25T02:47:08.494Z,99.99
2017-04-25T02:48:08.474Z,99.99
2017-04-25T02:49:08.523Z,99.99
2017-04-25T02:50:08.453Z,99.99
2017-04-25T02:51:08.457Z,99.99
2017-04-25T02:52:08.383Z,99.99
2017-04-25T02:53:08.053Z,99.99
2017-04-25T02:54:08.042Z,99.99
2017-04-25T02:55:08.367Z,99.99
2017-04-25T02:56:07.994Z,99.99
2017-04-25T02:57:07.972Z,99.99
2017-04-25T02:58:07.953Z,99.99
2017-04-25T02:59:07.945Z,99.99
2017-04-25T03:00:08.215Z,99.99
2017-04-25T03:01:08.202Z,99.99
2017-04-25T03:02:08.177Z,99.99
2017-04-25T03:03:07.843Z,99.99
2017-04-25T03:04:08.127Z,99.99
2017-04-25T03:05:07.792Z,99.99
2017-04-25T03:06:08.086Z,99.99
2017-04-25T03:07:08.070Z,99.99
2017-04-25T03:08:08.038Z,99.99
2017-04-25T03:09:08.022Z,99.99
2017-04-25T03:10:07.999Z,99.99
2017-04-25T03:11:07.975Z,99.99
2017-04-25T03:12:07.954Z,99.99
2017-04-25T03:13:07.625Z,99.99
2017-04-25T03:14:07.903Z,99.99
2017-04-25T03:15:07.886Z,99.99
2017-04-25T03:16:07.873Z,99.99
2017-04-25T03:17:07.844Z,99.99
2017-04-25T03:18:07.823Z,99.99
2017-04-25T03:19:07.797Z,99.99
2017-04-25T03:20:07.470Z,99.99
2017-04-25T03:21:07.755Z,99.99
2017-04-25T03:22:07.734Z,99.99
2017-04-25T03:23:07.403Z,99.99
2017-04-25T03:24:07.385Z,99.99
2017-04-25T03:25:07.370Z,99.99
2017-04-25T03:26:07.344Z,99.99
2017-04-25T03:27:07.624Z,99.99
2017-04-25T03:28:07.610Z,99.99
2017-04-25T03:29:07.580Z,99.99
2017-04-25T03:30:07.552Z,99.99
2017-04-25T03:31:07.535Z,99.99
2017-04-25T03:32:07.563Z,99.99
2017-04-25T03:33:07.180Z,99.99
2017-04-25T03:34:07.472Z,99.99
2017-04-25T03:35:07.444Z,99.99
2017-04-25T03:36:07.420Z,99.99
2017-04-25T03:37:07.394Z,99.99
2017-04-25T03:38:07.193Z,99.99
2017-04-25T03:39:07.414Z,99.99
2017-04-25T03:40:07.451Z,99.99
2017-04-25T03:41:07.007Z,99.99
2017-04-25T03:42:07.108Z,99.99
2017-04-25T03:43:07.274Z,99.99
2017-04-25T03:44:06.987Z,99.99
2017-04-25T03:45:07.223Z,99.99
2017-04-25T03:46:07.324Z,99.99
2017-04-25T03:47:07.178Z,99.99
2017-04-25T03:48:07.283Z,99.99
2017-04-25T03:49:07.140Z,99.99
2017-04-25T03:50:07.201Z,99.99
2017-04-25T03:51:07.099Z,99.99
2017-04-25T03:52:07.071Z,99.99
2017-04-25T03:53:06.755Z,99.99
2017-04-25T03:54:07.032Z,99.99
2017-04-25T03:55:07.009Z,99.99
2017-04-25T03:56:06.702Z,99.99
2017-04-25T03:57:06.968Z,99.99
2017-04-25T03:58:06.948Z,99.99
2017-04-25T03:59:06.912Z,99.99
2017-04-25T04:00:06.913Z,99.99
2017-04-25T04:01:06.873Z,99.99
2017-04-25T04:02:06.856Z,99.99
2017-04-25T04:03:06.522Z,99.99
2017-04-25T04:04:06.813Z,99.99
2017-04-25T04:05:06.782Z,99.99
2017-04-25T04:06:06.555Z,99.99
2017-04-25T04:07:06.786Z,99.99
2017-04-25T04:08:06.715Z,99.99
2017-04-25T04:09:06.383Z,99.99
2017-04-25T04:10:06.672Z,99.99
2017-04-25T04:11:06.355Z,99.99
2017-04-25T04:12:06.633Z,99.99
2017-04-25T04:13:06.613Z,99.99
2017-04-25T04:14:06.596Z,99.99
2017-04-25T04:15:06.563Z,99.99
2017-04-25T04:16:06.229Z,99.99
2017-04-25T04:17:06.522Z,99.99
2017-04-25T04:18:06.495Z,99.99
2017-04-25T04:19:06.484Z,99.99
2017-04-25T04:20:06.439Z,99.99
2017-04-25T04:21:06.422Z,99.99
2017-04-25T04:22:06.402Z,99.99
2017-04-25T04:23:06.380Z,99.99
2017-04-25T04:24:06.365Z,99.99
2017-04-25T04:25:06.038Z,99.99
2017-04-25T04:26:06.312Z,99.99
2017-04-25T04:27:06.283Z,99.99
2017-04-25T04:28:05.971Z,99.99
2017-04-25T04:29:06.262Z,99.99
2017-04-25T04:30:06.220Z,99.99
2017-04-25T04:31:06.212Z,99.99
2017-04-25T04:32:05.878Z,99.99
2017-04-25T04:33:06.180Z,99.99
2017-04-25T04:34:06.134Z,99.99
2017-04-25T04:35:05.803Z,99.99
2017-04-25T04:36:05.785Z,99.99
2017-04-25T04:37:06.063Z,99.99
2017-04-25T04:38:05.750Z,99.99
2017-04-25T04:39:06.070Z,99.99
2017-04-25T04:40:05.692Z,99.99
2017-04-25T04:41:05.674Z,99.99
2017-04-25T04:42:05.651Z,99.99
2017-04-25T04:43:05.932Z,99.99
2017-04-25T04:44:05.912Z,99.99
2017-04-25T04:45:05.576Z,99.99
2017-04-25T04:46:05.581Z,99.99
2017-04-25T04:47:05.863Z,99.99
2017-04-25T04:48:05.522Z,99.99
2017-04-25T04:49:05.505Z,99.99
2017-04-25T04:50:05.774Z,99.99
2017-04-25T04:51:05.763Z,99.99
2017-04-25T04:52:05.732Z,99.99
2017-04-25T04:53:05.717Z,99.99
2017-04-25T04:54:05.693Z,99.99
2017-04-25T04:55:05.364Z,99.99
2017-04-25T04:56:05.644Z,99.99
2017-04-25T04:57:05.621Z,99.99
2017-04-25T04:58:05.296Z,99.99
2017-04-25T04:59:05.271Z,99.99
2017-04-25T05:00:05.555Z,99.99
2017-04-25T05:01:05.221Z,99.99
2017-04-25T05:02:05.522Z,99.99
2017-04-25T05:03:05.493Z,99.99
2017-04-25T05:04:05.504Z,99.99
2017-04-25T05:05:05.438Z,99.99
2017-04-25T05:06:05.441Z,99.99
2017-04-25T05:07:05.422Z,99.99
2017-04-25T05:08:05.410Z,99.99
2017-04-25T05:09:05.367Z,99.99
2017-04-25T05:10:05.042Z,99.99
2017-04-25T05:11:05.008Z,99.99
2017-04-25T05:12:05.296Z,99.99
2017-04-25T05:13:05.003Z,99.99
2017-04-25T05:14:05.299Z,99.99
2017-04-25T05:15:05.215Z,99.99
2017-04-25T05:16:05.212Z,99.99
2017-04-25T05:17:05.182Z,99.99
2017-04-25T05:18:05.178Z,99.99
2017-04-25T05:19:05.182Z,99.99
2017-04-25T05:20:05.215Z,99.99
2017-04-25T05:21:04.793Z,99.99
2017-04-25T05:22:05.135Z,99.99
2017-04-25T05:23:05.055Z,99.99
2017-04-25T05:24:05.087Z,99.99
2017-04-25T05:25:05.016Z,99.99
2017-04-25T05:26:04.987Z,99.99
2017-04-25T05:27:04.658Z,99.99
2017-04-25T05:28:05.061Z,99.99
2017-04-25T05:29:04.913Z,99.99
2017-04-25T05:30:04.910Z,99.99
2017-04-25T05:31:04.896Z,99.99
2017-04-25T05:32:04.547Z,99.99
2017-04-25T05:33:04.832Z,99.99
2017-04-25T05:34:04.906Z,99.99
2017-04-25T05:35:04.834Z,99.99
2017-04-25T05:36:04.453Z,99.99
2017-04-25T05:37:04.766Z,99.99
2017-04-25T05:38:04.415Z,99.99
2017-04-25T05:39:04.382Z,99.99
2017-04-25T05:40:04.676Z,99.99
2017-04-25T05:41:04.344Z,99.99
2017-04-25T05:42:04.678Z,99.99
2017-04-25T05:43:04.609Z,99.99
2017-04-25T05:44:04.793Z,99.99
2017-04-25T05:45:04.583Z,99.99
2017-04-25T05:46:04.554Z,99.99
2017-04-25T05:47:04.526Z,99.99
2017-04-25T05:48:04.503Z,99.99
2017-04-25T05:49:04.479Z,99.99
2017-04-25T05:50:04.155Z,99.99
2017-04-25T05:51:04.453Z,99.99
2017-04-25T05:52:04.455Z,99.99
2017-04-25T05:53:04.394Z,99.99
2017-04-25T05:54:04.469Z,99.99
2017-04-25T05:55:04.352Z,99.99
2017-04-25T05:56:04.380Z,99.99
2017-04-25T05:57:04.304Z,99.99
2017-04-25T05:58:04.344Z,99.99
2017-04-25T05:59:03.957Z,99.99
2017-04-25T06:00:04.282Z,99.99
2017-04-25T06:01:04.223Z,99.99
2017-04-25T06:02:04.202Z,99.99
2017-04-25T06:03:04.183Z,99.99
2017-04-25T06:04:04.163Z,99.99
2017-04-25T06:05:03.840Z,99.99
2017-04-25T06:06:04.116Z,99.99
2017-04-25T06:07:03.795Z,99.99
2017-04-25T06:08:04.073Z,99.99
2017-04-25T06:09:04.062Z,99.99
2017-04-25T06:10:04.031Z,99.99
2017-04-25T06:11:04.021Z,99.99
2017-04-25T06:12:03.992Z,99.89
2017-04-25T06:13:03.972Z,99.99
2017-04-25T06:14:03.948Z,99.99
2017-04-25T06:15:03.918Z,99.99
2017-04-25T06:16:03.914Z,99.41
2017-04-25T06:17:03.879Z,99.03
2017-04-25T06:18:03.852Z,99.13
2017-04-25T06:19:03.844Z,99.41
2017-04-25T06:20:03.821Z,99.41
2017-04-25T06:21:03.803Z,99.22
2017-04-25T06:22:03.484Z,99.03
2017-04-25T06:23:03.754Z,98.36
2017-04-25T06:24:03.747Z,97.6
2017-04-25T06:25:03.416Z,97.6
2017-04-25T06:26:03.700Z,97.79
2017-04-25T06:27:03.683Z,98.27
2017-04-25T06:28:03.349Z,99.13
2017-04-25T06:29:03.643Z,98.55
2017-04-25T06:30:03.616Z,98.36
2017-04-25T06:31:03.651Z,98.46
2017-04-25T06:32:03.572Z,99.03
2017-04-25T06:33:03.543Z,99.41
2017-04-25T06:34:03.523Z,98.84
2017-04-25T06:35:03.518Z,98.94
2017-04-25T06:36:03.175Z,99.22
2017-04-25T06:37:03.242Z,98.74
2017-04-25T06:38:03.452Z,97.6
2017-04-25T06:39:03.481Z,97.41
2017-04-25T06:40:03.406Z,96.84
2017-04-25T06:41:03.385Z,96.36
2017-04-25T06:42:03.352Z,96.65
2017-04-25T06:43:03.396Z,97.03
2017-04-25T06:44:03.324Z,97.31
2017-04-25T06:45:03.303Z,96.51
2017-04-25T06:46:03.274Z,96.31
2017-04-25T06:47:02.954Z,96.41
2017-04-25T06:48:02.914Z,96.31
2017-04-25T06:49:03.213Z,96.6
2017-04-25T06:50:02.877Z,96.79
2017-04-25T06:51:02.871Z,96.55
2017-04-25T06:52:02.831Z,96.55
2017-04-25T06:53:03.129Z,95.6
2017-04-25T06:54:03.101Z,95.89
2017-04-25T06:55:02.779Z,95.32
2017-04-25T06:56:02.754Z,96.27
2017-04-25T06:57:03.042Z,95.32
2017-04-25T06:58:03.021Z,94.37
2017-04-25T06:59:03.001Z,93.6
2017-04-25T07:00:02.973Z,93.22
2017-04-25T07:01:02.951Z,93.41
2017-04-25T07:02:02.932Z,93.13
2017-04-25T07:03:02.920Z,94.27
2017-04-25T07:04:02.904Z,94.37
2017-04-25T07:05:02.672Z,93.7
2017-04-25T07:06:02.861Z,93.22
2017-04-25T07:07:02.831Z,92.84
2017-04-25T07:08:02.812Z,92.98
2017-04-25T07:09:02.800Z,92.5
2017-04-25T07:10:02.768Z,91.55
2017-04-25T07:11:02.752Z,91.84
2017-04-25T07:12:02.739Z,91.46
2017-04-25T07:13:02.712Z,92.5
2017-04-25T07:14:02.383Z,92.36
2017-04-25T07:15:02.671Z,92.84
2017-04-25T07:16:02.655Z,91.94
2017-04-25T07:17:02.635Z,91.36
2017-04-25T07:18:02.611Z,90.98
2017-04-25T07:19:02.603Z,91.08
2017-04-25T07:20:02.269Z,90.5
2017-04-25T07:21:02.259Z,89.65
2017-04-25T07:22:02.544Z,89.65
2017-04-25T07:23:02.523Z,89.6
2017-04-25T07:24:02.199Z,89.6
2017-04-25T07:25:02.484Z,88.84
2017-04-25T07:26:02.469Z,88.74
2017-04-25T07:27:02.453Z,88.12
2017-04-25T07:28:02.422Z,88.22
2017-04-25T07:29:02.408Z,88.7
2017-04-25T07:30:02.075Z,87.79
2017-04-25T07:31:02.361Z,86.45
2017-04-25T07:32:02.354Z,84.59
2017-04-25T07:33:02.333Z,83.16
2017-04-25T07:34:02.324Z,82.82
2017-04-25T07:35:02.299Z,81.71
2017-04-25T07:36:02.295Z,79.94
2017-04-25T07:37:02.262Z,78.99
2017-04-25T07:38:02.252Z,78.89
2017-04-25T07:39:02.231Z,77.21
2017-04-25T07:40:02.213Z,78.56
2017-04-25T07:41:02.216Z,79.33
2017-04-25T07:42:02.182Z,78.94
2017-04-25T07:43:01.862Z,76.69
2017-04-25T07:44:02.166Z,75.35
2017-04-25T07:45:02.143Z,74.15
2017-04-25T07:46:02.131Z,77.82
2017-04-25T07:47:02.114Z,73.59
2017-04-25T07:48:02.108Z,72.06
2017-04-25T07:49:02.090Z,71.39
2017-04-25T07:50:02.083Z,70.4
2017-04-25T07:51:02.072Z,71.45
2017-04-25T07:52:02.064Z,71.73
2017-04-25T07:53:02.046Z,71.99
2017-04-25T07:54:02.039Z,72.81
2017-04-25T07:55:02.018Z,73.25
2017-04-25T07:56:01.694Z,74.46
2017-04-25T07:57:02.003Z,75.37
2017-04-25T07:58:01.973Z,75.28
2017-04-25T07:59:01.659Z,75.53
2017-04-25T08:00:01.642Z,73.79
2017-04-25T08:01:01.931Z,71.53
2017-04-25T08:02:01.922Z,70.42
2017-04-25T08:03:01.902Z,68.93
2017-04-25T08:04:01.892Z,68.7
2017-04-25T08:05:01.884Z,68.8
2017-04-25T08:06:01.872Z,69.09
2017-04-25T08:07:01.550Z,68.35
2017-04-25T08:08:01.846Z,67.66
2017-04-25T08:09:01.833Z,66.89
2017-04-25T08:10:01.509Z,66.28
2017-04-25T08:11:01.806Z,67.02
2017-04-25T08:12:01.792Z,68.61
2017-04-25T08:13:01.791Z,69.91
2017-04-25T08:14:01.772Z,71.02
2017-04-25T08:15:01.766Z,70.48
2017-04-25T08:16:01.734Z,67.78
2017-04-25T08:17:01.814Z,66.96
2017-04-25T08:18:01.712Z,67.3
2017-04-25T08:19:01.713Z,67.78
2017-04-25T08:20:01.700Z,67.78
2017-04-25T08:21:01.379Z,67.02
2017-04-25T08:22:01.672Z,67.21
2017-04-25T08:23:01.654Z,67.02
2017-04-25T08:24:01.682Z,67.84
2017-04-25T08:25:01.636Z,68.99
2017-04-25T08:26:01.332Z,70.58
2017-04-25T08:27:01.599Z,72.32
2017-04-25T08:28:01.842Z,72.8
2017-04-25T08:29:01.267Z,73.47
2017-04-25T08:30:01.551Z,73.6
2017-04-25T08:31:01.551Z,73.79
2017-04-25T08:32:01.544Z,73.47
2017-04-25T08:33:01.512Z,73.66
2017-04-25T08:34:01.193Z,73.56
2017-04-25T08:35:01.509Z,74.01
2017-04-25T08:36:01.461Z,73.72
2017-04-25T08:37:01.454Z,74.77
2017-04-25T08:38:01.128Z,74.77
2017-04-25T08:39:01.108Z,74.57
2017-04-25T08:40:01.404Z,74.01
2017-04-25T08:41:01.395Z,73.37
2017-04-25T08:42:01.364Z,72.83
2017-04-25T08:43:01.356Z,71.78
2017-04-25T08:44:01.337Z,71.72
2017-04-25T08:45:01.322Z,70.96
2017-04-25T08:46:01.012Z,71.82
2017-04-25T08:47:01.293Z,72.36
2017-04-25T08:48:01.270Z,72.55
2017-04-25T08:49:00.952Z,73.88
2017-04-25T08:50:01.243Z,73.56
2017-04-25T08:51:01.235Z,73.85
2017-04-25T08:52:00.907Z,73.37
2017-04-25T08:53:01.210Z,73.37
2017-04-25T08:54:00.964Z,73.32
2017-04-25T08:55:01.153Z,72.74
2017-04-25T08:56:00.854Z,72.45
2017-04-25T08:57:00.813Z,72.39
2017-04-25T08:58:01.132Z,71.53
2017-04-25T08:59:01.103Z,71.25
2017-04-25T09:00:00.794Z,71.59
2017-04-25T09:01:01.071Z,71.69
2017-04-25T09:02:01.060Z,72.61
2017-04-25T09:03:01.039Z,73.28
2017-04-25T09:04:01.022Z,72.74
2017-04-25T09:05:01.002Z,73.73
2017-04-25T09:06:00.991Z,71.82
2017-04-25T09:07:00.973Z,71.53
2017-04-25T09:08:00.664Z,72.26
2017-04-25T09:09:00.643Z,72.17
2017-04-25T09:10:00.931Z,72.83
2017-04-25T09:11:00.914Z,74.32
2017-04-25T09:12:00.911Z,74.23
2017-04-25T09:13:00.580Z,74.23
2017-04-25T09:14:00.865Z,74.27
2017-04-25T09:15:00.862Z,74.46
2017-04-25T09:16:00.846Z,74.37
2017-04-25T09:17:00.503Z,73.5
2017-04-25T09:18:00.804Z,73.5
2017-04-25T09:19:00.479Z,73.6
2017-04-25T09:20:00.764Z,74.08
2017-04-25T09:21:00.442Z,72.87
2017-04-25T09:22:00.734Z,71.72
2017-04-25T09:23:00.714Z,71.92
2017-04-25T09:24:00.404Z,72.17
2017-04-25T09:25:00.374Z,72.45
2017-04-25T09:26:00.672Z,72.93
2017-04-25T09:27:00.349Z,72.64
2017-04-25T09:28:00.631Z,71.34
2017-04-25T09:29:00.636Z,70.52
2017-04-25T09:30:00.294Z,69.98
2017-04-25T09:31:00.600Z,68.68
2017-04-25T09:32:00.280Z,67.82
2017-04-25T09:33:00.562Z,67.53
2017-04-25T09:34:00.554Z,66.67
2017-04-25T09:35:00.542Z,67.97
2017-04-25T09:36:00.231Z,68.45
2017-04-25T09:37:00.523Z,68.51
2017-04-25T09:38:00.185Z,69.47
2017-04-25T09:39:00.481Z,70.04
2017-04-25T09:40:00.463Z,70.23
2017-04-25T09:41:00.563Z,70.42
2017-04-25T09:42:00.434Z,70.33
2017-04-25T09:43:00.431Z,70.61
2017-04-25T09:44:00.419Z,70.81
2017-04-25T09:45:00.406Z,71.34
2017-04-25T09:46:00.384Z,71
2017-04-25T09:47:00.374Z,71.28
2017-04-25T09:48:00.355Z,71.09
2017-04-25T09:49:00.028Z,71.44
2017-04-25T09:50:00.317Z,70.23
2017-04-25T09:51:00.313Z,70.87
2017-04-25T09:52:00.282Z,71.84
2017-04-25T09:52:59.972Z,72.13
2017-04-25T09:54:00.257Z,72.8
2017-04-25T09:55:00.236Z,72.8
2017-04-25T09:56:00.230Z,72.89
2017-04-25T09:57:00.207Z,72.8
2017-04-25T09:58:00.199Z,72.99
2017-04-25T09:59:00.194Z,73.08
2017-04-25T10:00:00.165Z,73.28
2017-04-25T10:00:59.838Z,72.93
2017-04-25T10:02:00.128Z,72.8
2017-04-25T10:03:00.102Z,73.47
2017-04-25T10:04:00.098Z,72.93
2017-04-25T10:05:00.076Z,72.83
2017-04-25T10:05:59.735Z,73.92
2017-04-25T10:06:59.723Z,74.88
2017-04-25T10:07:59.717Z,73.96
2017-04-25T10:08:59.683Z,73.19
2017-04-25T10:09:59.983Z,73.25
2017-04-25T10:10:59.660Z,73.16
2017-04-25T10:11:59.942Z,73.73
2017-04-25T10:12:59.925Z,73.92
2017-04-25T10:13:59.902Z,73.79
2017-04-25T10:14:59.585Z,73.41
2017-04-25T10:15:59.872Z,73.79
2017-04-25T10:16:59.853Z,73.03
2017-04-25T10:17:59.846Z,73.6
2017-04-25T10:18:59.820Z,73.69
2017-04-25T10:19:59.863Z,72.97
2017-04-25T10:20:59.787Z,73.92
2017-04-25T10:21:59.786Z,74.02
2017-04-25T10:22:59.792Z,73.67
2017-04-25T10:23:59.773Z,73.1
2017-04-25T10:24:59.724Z,73.16
2017-04-25T10:25:59.796Z,72.87
2017-04-25T10:26:59.687Z,73.35
2017-04-25T10:27:59.712Z,73.35
2017-04-25T10:28:59.645Z,74.08
2017-04-25T10:29:59.648Z,75.76
2017-04-25T10:30:59.612Z,76.42
2017-04-25T10:31:59.695Z,77.47
2017-04-25T10:32:59.559Z,77.47
2017-04-25T10:33:59.593Z,78.14
2017-04-25T10:34:59.224Z,79.19
2017-04-25T10:35:59.262Z,80.11
2017-04-25T10:36:59.191Z,81.25
2017-04-25T10:37:59.535Z,82.64
2017-04-25T10:38:59.455Z,83.12
2017-04-25T10:39:59.482Z,83.21
2017-04-25T10:40:59.113Z,83.16
2017-04-25T10:41:59.441Z,82.78
2017-04-25T10:42:59.424Z,83.21
2017-04-25T10:43:59.356Z,83.35
2017-04-25T10:44:59.363Z,82.49
2017-04-25T10:45:59.322Z,81.92
2017-04-25T10:46:59.000Z,81.96
2017-04-25T10:47:59.024Z,81.48
2017-04-25T10:48:58.970Z,80.33
2017-04-25T10:49:58.943Z,80.72
2017-04-25T10:50:58.915Z,80.72
2017-04-25T10:51:59.253Z,79.33
2017-04-25T10:52:58.878Z,78.47
2017-04-25T10:53:59.233Z,78.03
2017-04-25T10:54:59.156Z,77.08
2017-04-25T10:55:59.144Z,77.17
2017-04-25T10:56:59.115Z,77.17
2017-04-25T10:57:58.835Z,77.45
2017-04-25T10:58:58.785Z,76.6
2017-04-25T10:59:58.754Z,76.5
2017-04-25T11:00:59.052Z,76.37
2017-04-25T11:01:59.071Z,76.65
2017-04-25T11:02:58.695Z,76.75
2017-04-25T11:03:58.994Z,75.64
2017-04-25T11:04:58.984Z,76.12
2017-04-25T11:05:58.659Z,75.49
2017-04-25T11:06:58.616Z,74.44
2017-04-25T11:07:58.933Z,73.9
2017-04-25T11:08:58.952Z,72.37
2017-04-25T11:09:58.928Z,71.83
2017-04-25T11:10:58.914Z,72.08
2017-04-25T11:11:58.845Z,71.51
2017-04-25T11:12:58.834Z,71.13
2017-04-25T11:13:58.826Z,70.4
2017-04-25T11:14:58.495Z,69.5
2017-04-25T11:15:58.774Z,70.27
2017-04-25T11:16:58.804Z,71.22
2017-04-25T11:17:58.753Z,71.61
2017-04-25T11:18:58.837Z,71.42
2017-04-25T11:19:58.703Z,73.77
2017-04-25T11:20:58.693Z,77.45
2017-04-25T11:21:58.675Z,81.29
2017-04-25T11:22:58.656Z,83.48
2017-04-25T11:23:58.652Z,85.25
2017-04-25T11:24:58.625Z,87.5
2017-04-25T11:25:58.613Z,87.98
2017-04-25T11:26:58.274Z,88.17
2017-04-25T11:27:58.562Z,89.6
2017-04-25T11:28:58.239Z,90.89
2017-04-25T11:29:58.533Z,92.69
2017-04-25T11:30:58.511Z,92.6
2017-04-25T11:31:58.178Z,91.99
2017-04-25T11:32:58.463Z,92.46
2017-04-25T11:33:58.466Z,93.79
2017-04-25T11:34:58.436Z,93.79
2017-04-25T11:35:58.400Z,94.17
2017-04-25T11:36:58.384Z,94.17
2017-04-25T11:37:58.075Z,93.98
2017-04-25T11:38:58.345Z,93.6
2017-04-25T11:39:58.331Z,94.74
2017-04-25T11:40:58.003Z,94.46
2017-04-25T11:41:58.283Z,94.84
2017-04-25T11:42:57.971Z,95.41
2017-04-25T11:43:58.253Z,95.84
2017-04-25T11:44:58.240Z,95.46
2017-04-25T11:45:57.907Z,96.08
2017-04-25T11:46:57.889Z,93.46
2017-04-25T11:47:58.164Z,92.32
2017-04-25T11:48:58.154Z,91.69
2017-04-25T11:49:58.127Z,92.79
2017-04-25T11:50:58.113Z,89.2
2017-04-25T11:51:58.094Z,88.54
2017-04-25T11:52:58.106Z,87.72
2017-04-25T11:53:58.053Z,88.29
2017-04-25T11:54:58.038Z,86.33
2017-04-25T11:55:57.715Z,87
2017-04-25T11:56:58.002Z,87.29
2017-04-25T11:57:57.997Z,87.71
2017-04-25T11:58:57.672Z,87.37
2017-04-25T11:59:57.993Z,84.74
2017-04-25T12:00:57.925Z,83.06
2017-04-25T12:01:57.908Z,84.12
2017-04-25T12:02:57.895Z,84.98
2017-04-25T12:03:57.879Z,81.86
2017-04-25T12:04:57.862Z,82.49
2017-04-25T12:05:57.849Z,84.31
2017-04-25T12:06:57.832Z,82.49
2017-04-25T12:07:57.500Z,81.73
2017-04-25T12:08:57.794Z,81.63
2017-04-25T12:09:57.786Z,82.4
2017-04-25T12:10:57.494Z,82.59
2017-04-25T12:11:57.758Z,83.64
2017-04-25T12:12:57.727Z,81.77
2017-04-25T12:13:57.719Z,80.14
2017-04-25T12:14:57.698Z,80.76
2017-04-25T12:15:57.375Z,80.81
2017-04-25T12:16:57.359Z,79.75
2017-04-25T12:17:57.636Z,81.54
2017-04-25T12:18:57.628Z,81.15
2017-04-25T12:19:57.616Z,77.51
2017-04-25T12:20:57.287Z,77.7
2017-04-25T12:21:57.623Z,76.56
2017-04-25T12:22:57.555Z,75.7
2017-04-25T12:23:57.544Z,74.74
2017-04-25T12:24:57.525Z,76.62
2017-04-25T12:25:57.198Z,78.66
2017-04-25T12:26:57.544Z,77.46
2017-04-25T12:27:57.488Z,77.08
2017-04-25T12:28:57.154Z,76.79
2017-04-25T12:29:57.443Z,76.54
2017-04-25T12:30:57.120Z,74.52
2017-04-25T12:31:57.421Z,74.08
2017-04-25T12:32:57.392Z,73.32
2017-04-25T12:33:57.385Z,71.78
2017-04-25T12:34:57.069Z,72.42
2017-04-25T12:35:57.061Z,72.42
2017-04-25T12:36:57.020Z,71.75
2017-04-25T12:37:57.006Z,72.09
2017-04-25T12:38:57.004Z,71.94
2017-04-25T12:39:57.282Z,72.38
2017-04-25T12:40:56.951Z,72.71
2017-04-25T12:41:57.242Z,72.03
2017-04-25T12:42:56.922Z,72
2017-04-25T12:43:57.214Z,72.48
2017-04-25T12:44:57.203Z,72.38
2017-04-25T12:45:56.875Z,71.68
2017-04-25T12:46:57.174Z,72.34
2017-04-25T12:47:56.851Z,73.11
2017-04-25T12:48:57.134Z,73.36
2017-04-25T12:49:57.115Z,73.75
2017-04-25T12:50:57.103Z,75.47
2017-04-25T12:51:57.089Z,76.62
2017-04-25T12:52:57.075Z,77.28
2017-04-25T12:53:57.055Z,75.79